MTN7303 KBWI-KEWR
Flight info
| Callsign | MTN7303 |
|---|---|
| Flight time | 1h 0m |
| Altitude | 7000 |
| Route | BAL V378 MXE ARD METRO |
| Aircraft | C208/L-SDFGR/C |
Departure
| Time | 2026-04-22 15:37 |
|---|---|
| Airport | Baltimore/Washington International Thurgood Marshall Airport (KBWI) |
Arrival
| Time | 2026-04-22 16:37 |
|---|---|
| Airport | Newark Liberty International Airport (KEWR) |
| Time | Latitude | Longitude | Altitude | Speed | Heading |
|---|---|---|---|---|---|
| 2026-04-22 15:26 | 39.18577 | -76.66898 | 169 ft | 0 kts | 54° |
| 2026-04-22 15:33 | 39.18566 | -76.66897 | 169 ft | 6 kts | 208° |
| 2026-04-22 15:33 | 39.18485 | -76.66904 | 168 ft | 17 kts | 166° |
| 2026-04-22 15:33 | 39.18411 | -76.66857 | 167 ft | 15 kts | 140° |
| 2026-04-22 15:33 | 39.18451 | -76.66717 | 164 ft | 18 kts | 55° |
| 2026-04-22 15:34 | 39.18506 | -76.66616 | 159 ft | 23 kts | 54° |
| 2026-04-22 15:34 | 39.18598 | -76.66454 | 148 ft | 19 kts | 46° |
| 2026-04-22 15:34 | 39.18668 | -76.66417 | 145 ft | 0 kts | 19° |
| 2026-04-22 15:35 | 39.18669 | -76.66417 | 145 ft | 1 kts | 19° |
| 2026-04-22 15:35 | 39.18686 | -76.66408 | 145 ft | 7 kts | 25° |
| 2026-04-22 15:35 | 39.18727 | -76.66343 | 144 ft | 2 kts | 109° |
| 2026-04-22 15:36 | 39.18724 | -76.66338 | 144 ft | 0 kts | 142° |
| 2026-04-22 15:36 | 39.18722 | -76.66337 | 144 ft | 6 kts | 143° |
| 2026-04-22 15:36 | 39.18415 | -76.66056 | 141 ft | 71 kts | 144° |
| 2026-04-22 15:36 | 39.17948 | -76.65626 | 236 ft | 87 kts | 146° |
| 2026-04-22 15:37 | 39.17612 | -76.65350 | 393 ft | 84 kts | 148° |
| 2026-04-22 15:37 | 39.17150 | -76.64906 | 571 ft | 87 kts | 141° |
| 2026-04-22 15:37 | 39.16778 | -76.64286 | 732 ft | 94 kts | 84° |
| 2026-04-22 15:37 | 39.17170 | -76.63678 | 962 ft | 90 kts | 39° |
| 2026-04-22 15:38 | 39.17625 | -76.63132 | 1205 ft | 89 kts | 40° |
| 2026-04-22 15:38 | 39.18702 | -76.62362 | 1642 ft | 89 kts | 25° |
| 2026-04-22 15:38 | 39.19261 | -76.62012 | 1838 ft | 89 kts | 22° |
| 2026-04-22 15:39 | 39.19818 | -76.61651 | 2057 ft | 90 kts | 24° |
| 2026-04-22 15:39 | 39.20372 | -76.61276 | 2279 ft | 90 kts | 26° |
| 2026-04-22 15:39 | 39.20932 | -76.60906 | 2464 ft | 92 kts | 25° |
| 2026-04-22 15:39 | 39.21506 | -76.60527 | 2618 ft | 98 kts | 25° |
| 2026-04-22 15:40 | 39.22157 | -76.60092 | 2799 ft | 114 kts | 26° |
| 2026-04-22 15:40 | 39.22883 | -76.59615 | 2978 ft | 120 kts | 25° |
| 2026-04-22 15:40 | 39.23646 | -76.59107 | 3170 ft | 127 kts | 26° |
| 2026-04-22 15:40 | 39.24446 | -76.58573 | 3431 ft | 131 kts | 26° |
| 2026-04-22 15:41 | 39.25259 | -76.58034 | 3696 ft | 132 kts | 25° |
| 2026-04-22 15:41 | 39.26063 | -76.57505 | 3942 ft | 127 kts | 26° |
| 2026-04-22 15:41 | 39.26840 | -76.56991 | 4187 ft | 125 kts | 25° |
| 2026-04-22 15:41 | 39.27615 | -76.56482 | 4433 ft | 125 kts | 26° |
| 2026-04-22 15:42 | 39.28376 | -76.55973 | 4676 ft | 124 kts | 26° |
| 2026-04-22 15:42 | 39.29141 | -76.55466 | 4920 ft | 123 kts | 26° |
| 2026-04-22 15:42 | 39.29896 | -76.54964 | 5165 ft | 121 kts | 25° |
| 2026-04-22 15:42 | 39.30632 | -76.54480 | 5413 ft | 119 kts | 26° |
| 2026-04-22 15:43 | 39.31327 | -76.53876 | 5615 ft | 121 kts | 33° |
| 2026-04-22 15:43 | 39.32030 | -76.53282 | 5853 ft | 121 kts | 32° |
| 2026-04-22 15:43 | 39.32736 | -76.52679 | 6058 ft | 122 kts | 32° |
| 2026-04-22 15:43 | 39.33439 | -76.52070 | 6253 ft | 122 kts | 32° |
| 2026-04-22 15:44 | 39.34144 | -76.51459 | 6461 ft | 122 kts | 32° |
| 2026-04-22 15:44 | 39.34853 | -76.50849 | 6656 ft | 123 kts | 32° |
| 2026-04-22 15:44 | 39.35557 | -76.50244 | 6842 ft | 124 kts | 32° |
| 2026-04-22 15:44 | 39.36312 | -76.49588 | 6884 ft | 139 kts | 33° |
| 2026-04-22 15:45 | 39.37155 | -76.48853 | 6887 ft | 151 kts | 33° |
| 2026-04-22 15:45 | 39.38053 | -76.48075 | 6883 ft | 159 kts | 33° |
| 2026-04-22 15:45 | 39.38987 | -76.47268 | 6882 ft | 164 kts | 33° |
| 2026-04-22 15:45 | 39.39945 | -76.46439 | 6883 ft | 167 kts | 33° |
| 2026-04-22 15:46 | 39.40918 | -76.45595 | 6881 ft | 169 kts | 33° |
| 2026-04-22 15:46 | 39.41901 | -76.44739 | 6876 ft | 173 kts | 33° |
| 2026-04-22 15:46 | 39.42904 | -76.43873 | 6880 ft | 173 kts | 33° |
| 2026-04-22 15:46 | 39.43896 | -76.43019 | 6882 ft | 174 kts | 33° |
| 2026-04-22 15:47 | 39.44899 | -76.42143 | 6885 ft | 174 kts | 34° |
| 2026-04-22 15:47 | 39.45904 | -76.41260 | 6875 ft | 175 kts | 33° |
| 2026-04-22 15:47 | 39.46915 | -76.40388 | 6876 ft | 175 kts | 33° |
| 2026-04-22 15:47 | 39.47924 | -76.39512 | 6876 ft | 174 kts | 33° |
| 2026-04-22 15:48 | 39.48929 | -76.38638 | 6875 ft | 174 kts | 33° |
| 2026-04-22 15:48 | 39.49934 | -76.37764 | 6875 ft | 174 kts | 33° |
| 2026-04-22 15:48 | 39.50941 | -76.36894 | 6875 ft | 174 kts | 33° |
| 2026-04-22 15:48 | 39.51944 | -76.36017 | 6880 ft | 174 kts | 33° |
| 2026-04-22 15:49 | 39.52957 | -76.35136 | 6880 ft | 176 kts | 33° |
| 2026-04-22 15:49 | 39.53962 | -76.34259 | 6880 ft | 177 kts | 33° |
| 2026-04-22 15:49 | 39.54985 | -76.33371 | 6876 ft | 177 kts | 33° |
| 2026-04-22 15:49 | 39.56001 | -76.32481 | 6877 ft | 176 kts | 33° |
| 2026-04-22 15:50 | 39.57017 | -76.31600 | 6877 ft | 176 kts | 33° |
| 2026-04-22 15:50 | 39.58031 | -76.30718 | 6880 ft | 176 kts | 33° |
| 2026-04-22 15:50 | 39.58993 | -76.29737 | 6872 ft | 177 kts | 48° |
| 2026-04-22 15:50 | 39.59689 | -76.28424 | 6876 ft | 177 kts | 58° |
| 2026-04-22 15:51 | 39.60356 | -76.27079 | 6875 ft | 177 kts | 55° |
| 2026-04-22 15:51 | 39.61056 | -76.25760 | 6875 ft | 178 kts | 54° |
| 2026-04-22 15:51 | 39.61750 | -76.24453 | 6875 ft | 178 kts | 55° |
| 2026-04-22 15:51 | 39.62448 | -76.23124 | 6871 ft | 178 kts | 55° |
| 2026-04-22 15:52 | 39.63148 | -76.21808 | 6873 ft | 178 kts | 55° |
| 2026-04-22 15:52 | 39.63849 | -76.20470 | 6876 ft | 178 kts | 55° |
| 2026-04-22 15:52 | 39.64552 | -76.19151 | 6875 ft | 177 kts | 55° |
| 2026-04-22 15:52 | 39.65252 | -76.17832 | 6873 ft | 177 kts | 55° |
| 2026-04-22 15:53 | 39.65943 | -76.16512 | 6871 ft | 176 kts | 55° |
| 2026-04-22 15:53 | 39.66632 | -76.15205 | 6871 ft | 175 kts | 55° |
| 2026-04-22 15:53 | 39.67320 | -76.13900 | 6866 ft | 175 kts | 55° |
| 2026-04-22 15:53 | 39.68006 | -76.12599 | 6868 ft | 175 kts | 55° |
| 2026-04-22 15:54 | 39.68682 | -76.11314 | 6869 ft | 175 kts | 54° |
| 2026-04-22 15:54 | 39.69368 | -76.10017 | 6869 ft | 175 kts | 55° |
| 2026-04-22 15:54 | 39.70056 | -76.08701 | 6866 ft | 177 kts | 55° |
| 2026-04-22 15:54 | 39.70751 | -76.07379 | 6871 ft | 177 kts | 56° |
| 2026-04-22 15:55 | 39.71446 | -76.06063 | 6874 ft | 177 kts | 55° |
| 2026-04-22 15:55 | 39.72139 | -76.04748 | 6866 ft | 176 kts | 55° |
| 2026-04-22 15:55 | 39.72828 | -76.03439 | 6866 ft | 175 kts | 55° |
| 2026-04-22 15:55 | 39.73512 | -76.02133 | 6868 ft | 175 kts | 55° |
| 2026-04-22 15:56 | 39.74197 | -76.00831 | 6862 ft | 174 kts | 55° |
| 2026-04-22 15:56 | 39.74872 | -75.99544 | 6867 ft | 175 kts | 54° |
| 2026-04-22 15:56 | 39.75563 | -75.98230 | 6866 ft | 176 kts | 55° |
| 2026-04-22 15:56 | 39.76250 | -75.96913 | 6868 ft | 176 kts | 55° |
| 2026-04-22 15:57 | 39.76940 | -75.95593 | 6867 ft | 176 kts | 55° |
| 2026-04-22 15:57 | 39.77632 | -75.94281 | 6872 ft | 176 kts | 54° |
| 2026-04-22 15:57 | 39.78321 | -75.92965 | 6869 ft | 176 kts | 54° |
| 2026-04-22 15:57 | 39.79012 | -75.91652 | 6868 ft | 176 kts | 55° |
| 2026-04-22 15:58 | 39.79699 | -75.90332 | 6864 ft | 177 kts | 55° |
| 2026-04-22 15:58 | 39.80387 | -75.89009 | 6868 ft | 177 kts | 55° |
| 2026-04-22 15:58 | 39.81079 | -75.87686 | 6864 ft | 177 kts | 55° |
| 2026-04-22 15:58 | 39.81764 | -75.86384 | 6868 ft | 177 kts | 55° |
| 2026-04-22 15:59 | 39.82453 | -75.85063 | 6872 ft | 176 kts | 55° |
| 2026-04-22 15:59 | 39.83141 | -75.83742 | 6865 ft | 176 kts | 55° |
| 2026-04-22 15:59 | 39.83832 | -75.82423 | 6864 ft | 176 kts | 55° |
| 2026-04-22 15:59 | 39.84519 | -75.81111 | 6864 ft | 175 kts | 55° |
| 2026-04-22 16:00 | 39.85203 | -75.79796 | 6869 ft | 176 kts | 56° |
| 2026-04-22 16:00 | 39.85886 | -75.78472 | 6865 ft | 176 kts | 55° |
| 2026-04-22 16:00 | 39.86574 | -75.77160 | 6869 ft | 176 kts | 54° |
| 2026-04-22 16:00 | 39.87257 | -75.75861 | 6869 ft | 177 kts | 55° |
| 2026-04-22 16:01 | 39.87945 | -75.74537 | 6864 ft | 176 kts | 55° |
| 2026-04-22 16:01 | 39.88630 | -75.73219 | 6869 ft | 176 kts | 55° |
| 2026-04-22 16:01 | 39.89318 | -75.71897 | 6863 ft | 176 kts | 55° |
| 2026-04-22 16:01 | 39.90006 | -75.70577 | 6864 ft | 176 kts | 55° |
| 2026-04-22 16:02 | 39.90694 | -75.69252 | 6869 ft | 177 kts | 55° |
| 2026-04-22 16:02 | 39.91384 | -75.67922 | 6868 ft | 178 kts | 56° |
| 2026-04-22 16:02 | 39.92041 | -75.66564 | 6864 ft | 177 kts | 61° |
| 2026-04-22 16:02 | 39.92636 | -75.65191 | 6863 ft | 176 kts | 58° |
| 2026-04-22 16:03 | 39.93266 | -75.63818 | 6865 ft | 176 kts | 59° |
| 2026-04-22 16:03 | 39.93880 | -75.62444 | 6862 ft | 175 kts | 59° |
| 2026-04-22 16:03 | 39.94492 | -75.61072 | 6869 ft | 175 kts | 59° |
| 2026-04-22 16:03 | 39.95100 | -75.59695 | 6867 ft | 176 kts | 59° |
| 2026-04-22 16:04 | 39.95713 | -75.58314 | 6869 ft | 176 kts | 59° |
| 2026-04-22 16:04 | 39.96324 | -75.56929 | 6865 ft | 176 kts | 59° |
| 2026-04-22 16:04 | 39.96937 | -75.55552 | 6868 ft | 176 kts | 59° |
| 2026-04-22 16:04 | 39.97554 | -75.54169 | 6864 ft | 176 kts | 59° |
| 2026-04-22 16:05 | 39.98162 | -75.52787 | 6865 ft | 176 kts | 59° |
| 2026-04-22 16:05 | 39.98773 | -75.51408 | 6864 ft | 175 kts | 59° |
| 2026-04-22 16:05 | 39.99371 | -75.50051 | 6870 ft | 176 kts | 59° |
| 2026-04-22 16:05 | 39.99984 | -75.48667 | 6861 ft | 176 kts | 59° |
| 2026-04-22 16:06 | 40.00596 | -75.47286 | 6865 ft | 176 kts | 59° |
| 2026-04-22 16:06 | 40.01205 | -75.45903 | 6864 ft | 175 kts | 59° |
| 2026-04-22 16:06 | 40.01812 | -75.44532 | 6864 ft | 174 kts | 59° |
| 2026-04-22 16:06 | 40.02422 | -75.43156 | 6866 ft | 175 kts | 59° |
| 2026-04-22 16:07 | 40.03028 | -75.41779 | 6864 ft | 175 kts | 59° |
| 2026-04-22 16:07 | 40.03634 | -75.40404 | 6867 ft | 174 kts | 59° |
| 2026-04-22 16:07 | 40.04240 | -75.39033 | 6870 ft | 175 kts | 59° |
| 2026-04-22 16:07 | 40.04840 | -75.37666 | 6869 ft | 176 kts | 59° |
| 2026-04-22 16:08 | 40.05450 | -75.36279 | 6867 ft | 176 kts | 59° |
| 2026-04-22 16:08 | 40.06058 | -75.34899 | 6867 ft | 175 kts | 59° |
| 2026-04-22 16:08 | 40.06667 | -75.33521 | 6867 ft | 176 kts | 59° |
| 2026-04-22 16:08 | 40.07274 | -75.32139 | 6868 ft | 175 kts | 59° |
| 2026-04-22 16:09 | 40.07879 | -75.30757 | 6870 ft | 176 kts | 59° |
| 2026-04-22 16:09 | 40.08490 | -75.29373 | 6867 ft | 176 kts | 59° |
| 2026-04-22 16:09 | 40.09100 | -75.27989 | 6864 ft | 176 kts | 59° |
| 2026-04-22 16:09 | 40.09707 | -75.26602 | 6872 ft | 176 kts | 60° |
| 2026-04-22 16:10 | 40.10314 | -75.25212 | 6868 ft | 176 kts | 60° |
| 2026-04-22 16:10 | 40.10914 | -75.23846 | 6866 ft | 176 kts | 59° |
| 2026-04-22 16:10 | 40.11526 | -75.22456 | 6867 ft | 177 kts | 59° |
| 2026-04-22 16:10 | 40.12139 | -75.21060 | 6870 ft | 176 kts | 59° |
| 2026-04-22 16:11 | 40.12745 | -75.19670 | 6865 ft | 176 kts | 59° |
| 2026-04-22 16:11 | 40.13354 | -75.18288 | 6862 ft | 175 kts | 59° |
| 2026-04-22 16:11 | 40.13952 | -75.16910 | 6865 ft | 175 kts | 60° |
| 2026-04-22 16:11 | 40.14560 | -75.15524 | 6864 ft | 175 kts | 59° |
| 2026-04-22 16:12 | 40.15168 | -75.14147 | 6863 ft | 175 kts | 59° |
| 2026-04-22 16:12 | 40.15767 | -75.12765 | 6870 ft | 175 kts | 60° |
| 2026-04-22 16:12 | 40.16371 | -75.11375 | 6863 ft | 176 kts | 59° |
| 2026-04-22 16:12 | 40.16970 | -75.10012 | 6865 ft | 176 kts | 59° |
| 2026-04-22 16:13 | 40.17577 | -75.08623 | 6864 ft | 176 kts | 59° |
| 2026-04-22 16:13 | 40.18185 | -75.07229 | 6864 ft | 176 kts | 59° |
| 2026-04-22 16:13 | 40.18791 | -75.05838 | 6866 ft | 176 kts | 59° |
| 2026-04-22 16:13 | 40.19398 | -75.04444 | 6867 ft | 176 kts | 59° |
| 2026-04-22 16:14 | 40.20005 | -75.03056 | 6870 ft | 176 kts | 59° |
| 2026-04-22 16:14 | 40.20608 | -75.01666 | 6867 ft | 175 kts | 59° |
| 2026-04-22 16:14 | 40.21215 | -75.00279 | 6862 ft | 176 kts | 59° |
| 2026-04-22 16:14 | 40.21816 | -74.98891 | 6866 ft | 175 kts | 59° |
| 2026-04-22 16:15 | 40.22424 | -74.97500 | 6864 ft | 177 kts | 60° |
| 2026-04-22 16:15 | 40.23021 | -74.96122 | 6862 ft | 176 kts | 60° |
| 2026-04-22 16:15 | 40.23623 | -74.94738 | 6867 ft | 176 kts | 59° |
| 2026-04-22 16:15 | 40.24230 | -74.93345 | 6861 ft | 176 kts | 60° |
| 2026-04-22 16:16 | 40.24830 | -74.91955 | 6864 ft | 176 kts | 60° |
| 2026-04-22 16:16 | 40.25462 | -74.90586 | 6866 ft | 176 kts | 51° |
| 2026-04-22 16:16 | 40.26295 | -74.89415 | 6846 ft | 176 kts | 44° |
| 2026-04-22 16:16 | 40.27144 | -74.88257 | 6840 ft | 176 kts | 46° |
| 2026-04-22 16:17 | 40.27973 | -74.87090 | 6840 ft | 175 kts | 46° |
| 2026-04-22 16:17 | 40.28805 | -74.85919 | 6839 ft | 175 kts | 46° |
| 2026-04-22 16:17 | 40.29635 | -74.84760 | 6838 ft | 175 kts | 46° |
| 2026-04-22 16:17 | 40.30456 | -74.83616 | 6844 ft | 175 kts | 47° |
| 2026-04-22 16:18 | 40.31283 | -74.82439 | 6838 ft | 175 kts | 46° |
| 2026-04-22 16:18 | 40.32115 | -74.81278 | 6837 ft | 174 kts | 46° |
| 2026-04-22 16:18 | 40.32942 | -74.80118 | 6841 ft | 175 kts | 46° |
| 2026-04-22 16:18 | 40.33775 | -74.78947 | 6836 ft | 176 kts | 46° |
| 2026-04-22 16:19 | 40.34605 | -74.77776 | 6838 ft | 175 kts | 46° |
| 2026-04-22 16:19 | 40.35443 | -74.76608 | 6839 ft | 176 kts | 46° |
| 2026-04-22 16:19 | 40.36272 | -74.75428 | 6838 ft | 176 kts | 46° |
| 2026-04-22 16:19 | 40.37093 | -74.74269 | 6838 ft | 176 kts | 46° |
| 2026-04-22 16:20 | 40.37928 | -74.73103 | 6837 ft | 175 kts | 46° |
| 2026-04-22 16:20 | 40.38755 | -74.71940 | 6836 ft | 174 kts | 46° |
| 2026-04-22 16:20 | 40.39584 | -74.70772 | 6835 ft | 175 kts | 46° |
| 2026-04-22 16:20 | 40.40412 | -74.69605 | 6836 ft | 175 kts | 46° |
| 2026-04-22 16:21 | 40.41241 | -74.68432 | 6835 ft | 175 kts | 46° |
| 2026-04-22 16:21 | 40.42073 | -74.67257 | 6840 ft | 177 kts | 46° |
| 2026-04-22 16:21 | 40.42922 | -74.66098 | 6839 ft | 176 kts | 39° |
| 2026-04-22 16:21 | 40.43879 | -74.65099 | 6837 ft | 175 kts | 37° |
| 2026-04-22 16:22 | 40.45782 | -74.63141 | 6838 ft | 175 kts | 37° |
| 2026-04-22 16:22 | 40.46740 | -74.62155 | 6837 ft | 175 kts | 37° |
| 2026-04-22 16:22 | 40.47698 | -74.61167 | 6837 ft | 175 kts | 37° |
| 2026-04-22 16:23 | 40.49617 | -74.59196 | 6837 ft | 175 kts | 37° |
| 2026-04-22 16:23 | 40.50575 | -74.58206 | 6835 ft | 175 kts | 37° |
| 2026-04-22 16:23 | 40.51530 | -74.57225 | 6834 ft | 174 kts | 37° |
| 2026-04-22 16:24 | 40.52485 | -74.56241 | 6737 ft | 175 kts | 37° |
| 2026-04-22 16:24 | 40.54399 | -74.54274 | 6447 ft | 177 kts | 37° |
| 2026-04-22 16:24 | 40.55365 | -74.53282 | 6298 ft | 176 kts | 37° |
| 2026-04-22 16:25 | 40.56335 | -74.52287 | 6149 ft | 177 kts | 37° |
| 2026-04-22 16:25 | 40.58276 | -74.50298 | 5852 ft | 178 kts | 37° |
| 2026-04-22 16:25 | 40.59249 | -74.49296 | 5698 ft | 177 kts | 37° |
| 2026-04-22 16:26 | 40.60218 | -74.48301 | 5554 ft | 178 kts | 37° |
| 2026-04-22 16:26 | 40.61179 | -74.47319 | 5399 ft | 176 kts | 37° |
| 2026-04-22 16:26 | 40.62141 | -74.46328 | 5249 ft | 175 kts | 37° |
| 2026-04-22 16:26 | 40.63099 | -74.45344 | 5098 ft | 174 kts | 37° |
| 2026-04-22 16:27 | 40.64057 | -74.44359 | 4946 ft | 175 kts | 37° |
| 2026-04-22 16:27 | 40.65013 | -74.43376 | 4799 ft | 175 kts | 37° |
| 2026-04-22 16:27 | 40.65974 | -74.42393 | 4649 ft | 175 kts | 37° |
| 2026-04-22 16:27 | 40.66940 | -74.41412 | 4500 ft | 175 kts | 37° |
| 2026-04-22 16:28 | 40.67893 | -74.40421 | 4344 ft | 174 kts | 37° |
| 2026-04-22 16:28 | 40.68854 | -74.39438 | 4202 ft | 176 kts | 37° |
| 2026-04-22 16:28 | 40.69801 | -74.38444 | 4051 ft | 176 kts | 39° |
| 2026-04-22 16:28 | 40.70722 | -74.37397 | 3902 ft | 174 kts | 40° |
| 2026-04-22 16:29 | 40.71632 | -74.36355 | 3758 ft | 174 kts | 40° |
| 2026-04-22 16:29 | 40.72555 | -74.35305 | 3599 ft | 175 kts | 40° |
| 2026-04-22 16:29 | 40.73476 | -74.34263 | 3455 ft | 174 kts | 40° |
| 2026-04-22 16:29 | 40.74388 | -74.33221 | 3300 ft | 173 kts | 40° |
| 2026-04-22 16:30 | 40.74973 | -74.32513 | 3199 ft | 173 kts | 43° |
| 2026-04-22 16:30 | 40.76125 | -74.31017 | 3005 ft | 175 kts | 44° |
| 2026-04-22 16:30 | 40.77001 | -74.29894 | 2855 ft | 176 kts | 45° |
| 2026-04-22 16:30 | 40.77845 | -74.28722 | 2701 ft | 176 kts | 45° |
| 2026-04-22 16:31 | 40.78687 | -74.27588 | 2566 ft | 175 kts | 45° |
| 2026-04-22 16:31 | 40.79522 | -74.26409 | 2410 ft | 175 kts | 50° |
| 2026-04-22 16:31 | 40.80141 | -74.25096 | 2247 ft | 165 kts | 64° |
| 2026-04-22 16:31 | 40.80533 | -74.23711 | 2085 ft | 158 kts | 73° |
| 2026-04-22 16:32 | 40.80702 | -74.22292 | 1921 ft | 156 kts | 89° |
| 2026-04-22 16:32 | 40.80546 | -74.20892 | 1762 ft | 155 kts | 107° |
| 2026-04-22 16:32 | 40.80187 | -74.19566 | 1633 ft | 152 kts | 111° |
| 2026-04-22 16:32 | 40.79797 | -74.18280 | 1503 ft | 150 kts | 112° |
| 2026-04-22 16:33 | 40.79357 | -74.17048 | 1378 ft | 151 kts | 117° |
| 2026-04-22 16:33 | 40.78889 | -74.15870 | 1353 ft | 141 kts | 118° |
| 2026-04-22 16:33 | 40.78423 | -74.14782 | 1350 ft | 133 kts | 122° |
| 2026-04-22 16:33 | 40.77906 | -74.13802 | 1336 ft | 128 kts | 134° |
| 2026-04-22 16:34 | 40.77225 | -74.13067 | 1331 ft | 126 kts | 144° |
| 2026-04-22 16:34 | 40.76436 | -74.12621 | 1331 ft | 124 kts | 168° |
| 2026-04-22 16:34 | 40.75624 | -74.12835 | 1302 ft | 123 kts | 208° |
| 2026-04-22 16:34 | 40.74814 | -74.13318 | 1136 ft | 132 kts | 204° |
| 2026-04-22 16:35 | 40.73976 | -74.13828 | 953 ft | 136 kts | 206° |
| 2026-04-22 16:35 | 40.73128 | -74.14389 | 762 ft | 136 kts | 209° |
| 2026-04-22 16:35 | 40.72309 | -74.14948 | 637 ft | 123 kts | 204° |
| 2026-04-22 16:35 | 40.71579 | -74.15386 | 436 ft | 106 kts | 207° |
| 2026-04-22 16:36 | 40.70927 | -74.15794 | 248 ft | 100 kts | 205° |
| 2026-04-22 16:36 | 40.70316 | -74.16181 | 110 ft | 95 kts | 206° |
| 2026-04-22 16:36 | 40.69789 | -74.16517 | 19 ft | 72 kts | 206° |
| 2026-04-22 16:36 | 40.69391 | -74.16769 | 21 ft | 61 kts | 205° |
| 2026-04-22 16:37 | 40.69009 | -74.17012 | 18 ft | 61 kts | 206° |
| 2026-04-22 16:37 | 40.68634 | -74.17252 | 21 ft | 60 kts | 205° |
| 2026-04-22 16:37 | 40.68265 | -74.17480 | 19 ft | 51 kts | 205° |
| 2026-04-22 16:37 | 40.68003 | -74.17650 | 15 ft | 39 kts | 205° |
| 2026-04-22 16:38 | 40.67719 | -74.17829 | 16 ft | 53 kts | 205° |
| 2026-04-22 16:38 | 40.67587 | -74.18012 | 18 ft | 15 kts | 289° |
| 2026-04-22 16:38 | 40.67640 | -74.18108 | 19 ft | 16 kts | 305° |
| 2026-04-22 16:38 | 40.67588 | -74.18195 | 17 ft | 11 kts | 205° |
| 2026-04-22 16:39 | 40.67488 | -74.18259 | 16 ft | 21 kts | 206° |
| 2026-04-22 16:39 | 40.67441 | -74.18338 | 16 ft | 7 kts | 295° |
| 2026-04-22 16:39 | 40.67467 | -74.18352 | 17 ft | 1 kts | 26° |